KLGF/LGF METAR and TAF weather

Enter ICAO airport designator
Station Type Date Time Source
KLGF METAR 2022/12/10 00:55 UTC NOAA

KLGF 100055Z AUTO 31005KT 9SM CLR 16/M03 A3003 RMK AO2 SLP171 T01641032 $


Station Type Date Time Source
KLGF Decoded METAR 2022/12/10 00:55 UTC NOAA

Station name not available
Dec 09, 2022 - 07:55 PM EST / 2022.12.10 0055 UTC
Wind: from the NW (310 degrees) at 6 MPH (5 KT):0
Visibility: 9 mile(s):0
Sky conditions: clear
Temperature: 61.5 F (16.4 C)
Dew Point: 26.2 F (-3.2 C)
Relative Humidity: 25%
Pressure (altimeter): 30.03 in. Hg (1016 hPa)
ob: KLGF 100055Z AUTO 31005KT 9SM CLR 16/M03 A3003 RMK AO2 SLP171 T01641032
cycle: 1

Station Type Date Time Source
KLGF TAF UTC NOAA

Error!

Example: see airport list